sensor_id;sensor_type;location;lat;lon;timestamp;pressure;altitude;pressure_sealevel;temperature;humidity
78613;BME280;67933;51.060;3.638;2023-11-19T00:00:27;101059.41;;;12.91;100.00
78613;BME280;67933;51.060;3.638;2023-11-19T00:02:52;101056.28;;;12.84;100.00
78613;BME280;67933;51.060;3.638;2023-11-19T00:05:18;101055.34;;;12.85;100.00
78613;BME280;67933;51.060;3.638;2023-11-19T00:07:44;101045.44;;;12.73;100.00
78613;BME280;67933;51.060;3.638;2023-11-19T00:12:40;101053.34;;;12.75;100.00
78613;BME280;67933;51.060;3.638;2023-11-19T00:15:06;101053.34;;;12.75;100.00
78613;BME280;67933;51.060;3.638;2023-11-19T00:17:42;101047.34;;;12.85;100.00
78613;BME280;67933;51.060;3.638;2023-11-19T00:20:18;101058.56;;;12.76;100.00
78613;BME280;67933;51.060;3.638;2023-11-19T00:22:44;101054.84;;;12.64;100.00
78613;BME280;67933;51.060;3.638;2023-11-19T00:25:11;101069.13;;;12.63;100.00
78613;BME280;67933;51.060;3.638;2023-11-19T00:27:37;101076.06;;;12.66;100.00
78613;BME280;67933;51.060;3.638;2023-11-19T00:30:06;101077.09;;;12.63;100.00
78613;BME280;67933;51.060;3.638;2023-11-19T00:32:32;101063.31;;;12.57;100.00
78613;BME280;67933;51.060;3.638;2023-11-19T00:34:58;101064.19;;;12.43;100.00
78613;BME280;67933;51.060;3.638;2023-11-19T00:37:23;101071.97;;;12.32;100.00
78613;BME280;67933;51.060;3.638;2023-11-19T00:39:49;101077.19;;;12.19;100.00
78613;BME280;67933;51.060;3.638;2023-11-19T00:42:14;101082.69;;;12.16;100.00
78613;BME280;67933;51.060;3.638;2023-11-19T00:44:40;101084.13;;;12.08;100.00
78613;BME280;67933;51.060;3.638;2023-11-19T00:47:07;101082.41;;;12.07;100.00
78613;BME280;67933;51.060;3.638;2023-11-19T00:49:32;101059.09;;;11.96;100.00
78613;BME280;67933;51.060;3.638;2023-11-19T00:52:00;101066.63;;;12.04;100.00
78613;BME280;67933;51.060;3.638;2023-11-19T00:54:27;101063.72;;;11.92;100.00
78613;BME280;67933;51.060;3.638;2023-11-19T00:56:52;101056.53;;;11.94;100.00
78613;BME280;67933;51.060;3.638;2023-11-19T00:59:18;101065.84;;;12.02;100.00
78613;BME280;67933;51.060;3.638;2023-11-19T01:01:44;101064.13;;;12.01;100.00
78613;BME280;67933;51.060;3.638;2023-11-19T01:04:09;101055.81;;;12.07;100.00
78613;BME280;67933;51.060;3.638;2023-11-19T01:06:34;101061.06;;;11.92;100.00
78613;BME280;67933;51.060;3.638;2023-11-19T01:09:00;101050.06;;;11.84;100.00
78613;BME280;67933;51.060;3.638;2023-11-19T01:11:25;101060.88;;;11.81;100.00
78613;BME280;67933;51.060;3.638;2023-11-19T01:13:51;101052.53;;;11.87;100.00
78613;BME280;67933;51.060;3.638;2023-11-19T01:16:18;101068.84;;;11.81;100.00
78613;BME280;67933;51.060;3.638;2023-11-19T01:18:44;101055.84;;;11.77;100.00
78613;BME280;67933;51.060;3.638;2023-11-19T01:21:09;101058.22;;;11.81;100.00
78613;BME280;67933;51.060;3.638;2023-11-19T01:23:35;101058.13;;;11.83;100.00
78613;BME280;67933;51.060;3.638;2023-11-19T01:26:02;101065.69;;;11.75;100.00
78613;BME280;67933;51.060;3.638;2023-11-19T01:28:27;101069.88;;;11.79;100.00
78613;BME280;67933;51.060;3.638;2023-11-19T01:30:53;101061.72;;;11.82;100.00
78613;BME280;67933;51.060;3.638;2023-11-19T01:33:19;101053.47;;;11.86;100.00
78613;BME280;67933;51.060;3.638;2023-11-19T01:35:44;101046.44;;;11.85;100.00
78613;BME280;67933;51.060;3.638;2023-11-19T01:38:10;101046.75;;;11.95;100.00
78613;BME280;67933;51.060;3.638;2023-11-19T01:40:36;101041.63;;;11.92;100.00
78613;BME280;67933;51.060;3.638;2023-11-19T01:43:02;101048.69;;;11.77;100.00
78613;BME280;67933;51.060;3.638;2023-11-19T01:45:28;101040.47;;;11.82;100.00
78613;BME280;67933;51.060;3.638;2023-11-19T01:47:55;101044.16;;;11.79;100.00
78613;BME280;67933;51.060;3.638;2023-11-19T01:50:22;101050.41;;;11.78;100.00
78613;BME280;67933;51.060;3.638;2023-11-19T01:52:51;101054.22;;;11.74;100.00
78613;BME280;67933;51.060;3.638;2023-11-19T01:55:17;101048.72;;;11.62;100.00
78613;BME280;67933;51.060;3.638;2023-11-19T01:57:44;101053.84;;;11.65;100.00
78613;BME280;67933;51.060;3.638;2023-11-19T02:00:10;101050.69;;;11.58;100.00
78613;BME280;67933;51.060;3.638;2023-11-19T02:02:39;101043.84;;;11.54;100.00
78613;BME280;67933;51.060;3.638;2023-11-19T02:05:05;101050.63;;;11.60;100.00
78613;BME280;67933;51.060;3.638;2023-11-19T02:07:32;101046.69;;;11.51;100.00
78613;BME280;67933;51.060;3.638;2023-11-19T02:09:58;101042.41;;;11.48;100.00
78613;BME280;67933;51.060;3.638;2023-11-19T02:12:26;101038.63;;;11.52;100.00
78613;BME280;67933;51.060;3.638;2023-11-19T02:14:53;101036.44;;;11.45;100.00
78613;BME280;67933;51.060;3.638;2023-11-19T02:17:45;101025.53;;;11.49;100.00
78613;BME280;67933;51.060;3.638;2023-11-19T02:20:10;101028.72;;;11.40;100.00
78613;BME280;67933;51.060;3.638;2023-11-19T02:22:40;101032.81;;;11.46;100.00
78613;BME280;67933;51.060;3.638;2023-11-19T02:25:17;101034.09;;;11.39;100.00
78613;BME280;67933;51.060;3.638;2023-11-19T02:27:56;101031.31;;;11.26;100.00
78613;BME280;67933;51.060;3.638;2023-11-19T02:30:22;101036.03;;;11.21;100.00
78613;BME280;67933;51.060;3.638;2023-11-19T02:32:55;101036.25;;;11.32;100.00
78613;BME280;67933;51.060;3.638;2023-11-19T02:35:24;101039.25;;;11.42;100.00
78613;BME280;67933;51.060;3.638;2023-11-19T02:37:51;101031.69;;;11.50;100.00
78613;BME280;67933;51.060;3.638;2023-11-19T02:40:16;101024.00;;;11.45;100.00
78613;BME280;67933;51.060;3.638;2023-11-19T02:42:42;101029.56;;;11.41;100.00
78613;BME280;67933;51.060;3.638;2023-11-19T02:45:08;101028.47;;;11.45;100.00
78613;BME280;67933;51.060;3.638;2023-11-19T02:47:39;101023.72;;;11.50;100.00
78613;BME280;67933;51.060;3.638;2023-11-19T02:50:05;101018.78;;;11.44;100.00
78613;BME280;67933;51.060;3.638;2023-11-19T02:52:38;101038.31;;;11.43;100.00
78613;BME280;67933;51.060;3.638;2023-11-19T02:55:04;101027.00;;;11.39;100.00
78613;BME280;67933;51.060;3.638;2023-11-19T02:57:34;101021.94;;;11.50;100.00
78613;BME280;67933;51.060;3.638;2023-11-19T02:59:59;101019.75;;;11.57;100.00
78613;BME280;67933;51.060;3.638;2023-11-19T03:02:24;101017.34;;;11.68;100.00
78613;BME280;67933;51.060;3.638;2023-11-19T03:04:58;101013.72;;;11.69;100.00
78613;BME280;67933;51.060;3.638;2023-11-19T03:07:24;101015.78;;;11.64;100.00
78613;BME280;67933;51.060;3.638;2023-11-19T03:09:49;101002.59;;;11.63;100.00
78613;BME280;67933;51.060;3.638;2023-11-19T03:12:16;101008.19;;;11.58;100.00
78613;BME280;67933;51.060;3.638;2023-11-19T03:14:41;101002.09;;;11.56;100.00
78613;BME280;67933;51.060;3.638;2023-11-19T03:17:07;101028.88;;;11.53;100.00
78613;BME280;67933;51.060;3.638;2023-11-19T03:19:34;101029.44;;;11.58;100.00
78613;BME280;67933;51.060;3.638;2023-11-19T03:22:01;101029.53;;;11.56;100.00
78613;BME280;67933;51.060;3.638;2023-11-19T03:24:27;101022.47;;;11.41;100.00
78613;BME280;67933;51.060;3.638;2023-11-19T03:26:52;101040.56;;;11.35;100.00
78613;BME280;67933;51.060;3.638;2023-11-19T03:29:17;101029.94;;;11.35;100.00
78613;BME280;67933;51.060;3.638;2023-11-19T03:31:43;101034.31;;;11.20;100.00
78613;BME280;67933;51.060;3.638;2023-11-19T03:34:09;101043.09;;;11.06;100.00
78613;BME280;67933;51.060;3.638;2023-11-19T03:36:35;101040.75;;;11.00;100.00
78613;BME280;67933;51.060;3.638;2023-11-19T03:39:00;101033.56;;;10.87;100.00
78613;BME280;67933;51.060;3.638;2023-11-19T03:41:26;101051.56;;;10.82;100.00
78613;BME280;67933;51.060;3.638;2023-11-19T03:43:51;101056.84;;;10.66;100.00
78613;BME280;67933;51.060;3.638;2023-11-19T03:46:20;101066.94;;;10.59;100.00
78613;BME280;67933;51.060;3.638;2023-11-19T03:48:49;101057.50;;;10.54;100.00
78613;BME280;67933;51.060;3.638;2023-11-19T03:51:15;101060.47;;;10.48;100.00
78613;BME280;67933;51.060;3.638;2023-11-19T03:53:45;101058.09;;;10.43;100.00
78613;BME280;67933;51.060;3.638;2023-11-19T03:56:11;101056.78;;;10.34;100.00
78613;BME280;67933;51.060;3.638;2023-11-19T03:58:37;101051.41;;;10.36;100.00
78613;BME280;67933;51.060;3.638;2023-11-19T04:01:10;101058.91;;;10.28;100.00
78613;BME280;67933;51.060;3.638;2023-11-19T04:03:36;101068.03;;;10.22;100.00
78613;BME280;67933;51.060;3.638;2023-11-19T04:06:02;101069.25;;;10.15;100.00
78613;BME280;67933;51.060;3.638;2023-11-19T04:08:27;101066.59;;;10.15;100.00
78613;BME280;67933;51.060;3.638;2023-11-19T04:10:53;101080.03;;;10.12;100.00
78613;BME280;67933;51.060;3.638;2023-11-19T04:13:18;101080.53;;;10.20;100.00
78613;BME280;67933;51.060;3.638;2023-11-19T04:15:45;101077.88;;;10.20;100.00
78613;BME280;67933;51.060;3.638;2023-11-19T04:18:10;101090.56;;;10.14;100.00
78613;BME280;67933;51.060;3.638;2023-11-19T04:20:36;101091.03;;;10.04;100.00
78613;BME280;67933;51.060;3.638;2023-11-19T04:23:02;101076.13;;;9.85;100.00
78613;BME280;67933;51.060;3.638;2023-11-19T04:25:28;101082.34;;;9.84;100.00
78613;BME280;67933;51.060;3.638;2023-11-19T04:27:54;101092.13;;;9.83;100.00
78613;BME280;67933;51.060;3.638;2023-11-19T04:30:19;101083.94;;;9.88;100.00
78613;BME280;67933;51.060;3.638;2023-11-19T04:32:44;101093.06;;;9.82;100.00
78613;BME280;67933;51.060;3.638;2023-11-19T04:35:10;101088.16;;;9.75;100.00
78613;BME280;67933;51.060;3.638;2023-11-19T04:37:36;101086.88;;;9.99;100.00
78613;BME280;67933;51.060;3.638;2023-11-19T04:40:02;101084.09;;;10.02;100.00
78613;BME280;67933;51.060;3.638;2023-11-19T04:42:27;101076.28;;;9.99;100.00
78613;BME280;67933;51.060;3.638;2023-11-19T04:44:53;101081.81;;;9.94;100.00
78613;BME280;67933;51.060;3.638;2023-11-19T04:47:18;101084.06;;;9.85;100.00
78613;BME280;67933;51.060;3.638;2023-11-19T04:49:44;101086.13;;;9.80;100.00
78613;BME280;67933;51.060;3.638;2023-11-19T04:52:09;101074.25;;;9.70;100.00
78613;BME280;67933;51.060;3.638;2023-11-19T04:54:34;101090.41;;;9.82;100.00
78613;BME280;67933;51.060;3.638;2023-11-19T04:57:00;101079.56;;;9.87;100.00
78613;BME280;67933;51.060;3.638;2023-11-19T04:59:25;101077.72;;;9.89;100.00
78613;BME280;67933;51.060;3.638;2023-11-19T05:01:52;101076.28;;;9.99;100.00
78613;BME280;67933;51.060;3.638;2023-11-19T05:04:18;101078.31;;;9.94;100.00
78613;BME280;67933;51.060;3.638;2023-11-19T05:06:44;101079.09;;;9.79;100.00
78613;BME280;67933;51.060;3.638;2023-11-19T05:09:09;101075.19;;;9.86;100.00
78613;BME280;67933;51.060;3.638;2023-11-19T05:11:37;101081.56;;;9.99;100.00
78613;BME280;67933;51.060;3.638;2023-11-19T05:14:04;101074.72;;;9.95;100.00
78613;BME280;67933;51.060;3.638;2023-11-19T05:16:31;101070.69;;;10.05;100.00
78613;BME280;67933;51.060;3.638;2023-11-19T05:18:57;101066.78;;;10.12;100.00
78613;BME280;67933;51.060;3.638;2023-11-19T05:21:22;101068.19;;;10.19;100.00
78613;BME280;67933;51.060;3.638;2023-11-19T05:23:49;101058.19;;;10.07;100.00
78613;BME280;67933;51.060;3.638;2023-11-19T05:26:23;101061.81;;;10.06;100.00
78613;BME280;67933;51.060;3.638;2023-11-19T05:28:48;101068.19;;;10.02;100.00
78613;BME280;67933;51.060;3.638;2023-11-19T05:31:15;101067.84;;;10.08;100.00
78613;BME280;67933;51.060;3.638;2023-11-19T05:33:40;101073.50;;;10.19;100.00
78613;BME280;67933;51.060;3.638;2023-11-19T05:36:06;101078.81;;;10.19;100.00
78613;BME280;67933;51.060;3.638;2023-11-19T05:38:33;101076.84;;;10.23;100.00
78613;BME280;67933;51.060;3.638;2023-11-19T05:40:59;101078.78;;;10.02;100.00
78613;BME280;67933;51.060;3.638;2023-11-19T05:43:24;101078.25;;;9.95;100.00
78613;BME280;67933;51.060;3.638;2023-11-19T05:45:50;101071.28;;;9.93;100.00
78613;BME280;67933;51.060;3.638;2023-11-19T05:48:15;101078.72;;;10.03;100.00
78613;BME280;67933;51.060;3.638;2023-11-19T05:50:41;101072.16;;;9.93;100.00
78613;BME280;67933;51.060;3.638;2023-11-19T05:53:07;101070.63;;;9.89;100.00
78613;BME280;67933;51.060;3.638;2023-11-19T05:55:36;101078.78;;;9.85;100.00
78613;BME280;67933;51.060;3.638;2023-11-19T05:58:02;101087.38;;;9.90;100.00
78613;BME280;67933;51.060;3.638;2023-11-19T06:00:29;101085.78;;;9.86;100.00
78613;BME280;67933;51.060;3.638;2023-11-19T06:02:55;101079.31;;;9.91;100.00
78613;BME280;67933;51.060;3.638;2023-11-19T06:05:21;101081.03;;;9.92;100.00
78613;BME280;67933;51.060;3.638;2023-11-19T06:07:46;101085.41;;;9.93;100.00
78613;BME280;67933;51.060;3.638;2023-11-19T06:10:11;101086.25;;;9.94;100.00
78613;BME280;67933;51.060;3.638;2023-11-19T06:12:39;101073.47;;;9.85;100.00
78613;BME280;67933;51.060;3.638;2023-11-19T06:15:07;101075.66;;;9.94;100.00
78613;BME280;67933;51.060;3.638;2023-11-19T06:17:34;101072.16;;;9.93;100.00
78613;BME280;67933;51.060;3.638;2023-11-19T06:19:59;101064.84;;;9.98;100.00
78613;BME280;67933;51.060;3.638;2023-11-19T06:22:25;101065.06;;;9.94;100.00
78613;BME280;67933;51.060;3.638;2023-11-19T06:24:50;101066.19;;;9.90;100.00
78613;BME280;67933;51.060;3.638;2023-11-19T06:27:15;101077.25;;;9.98;100.00
78613;BME280;67933;51.060;3.638;2023-11-19T06:29:41;101068.97;;;10.04;100.00
78613;BME280;67933;51.060;3.638;2023-11-19T06:32:07;101060.16;;;10.03;100.00
78613;BME280;67933;51.060;3.638;2023-11-19T06:34:33;101067.94;;;10.07;100.00
78613;BME280;67933;51.060;3.638;2023-11-19T06:36:59;101073.63;;;9.99;100.00
78613;BME280;67933;51.060;3.638;2023-11-19T06:39:24;101067.19;;;10.04;100.00
78613;BME280;67933;51.060;3.638;2023-11-19T06:41:50;101070.50;;;10.08;100.00
78613;BME280;67933;51.060;3.638;2023-11-19T06:44:15;101083.16;;;10.03;100.00
78613;BME280;67933;51.060;3.638;2023-11-19T06:46:41;101085.34;;;9.95;100.00
78613;BME280;67933;51.060;3.638;2023-11-19T06:49:06;101083.63;;;9.94;100.00
78613;BME280;67933;51.060;3.638;2023-11-19T06:51:33;101091.09;;;9.86;100.00
78613;BME280;67933;51.060;3.638;2023-11-19T06:54:00;101089.56;;;9.82;100.00
78613;BME280;67933;51.060;3.638;2023-11-19T06:56:26;101100.44;;;9.93;100.00
78613;BME280;67933;51.060;3.638;2023-11-19T06:58:52;101087.66;;;10.01;100.00
78613;BME280;67933;51.060;3.638;2023-11-19T07:01:18;101094.06;;;9.97;100.00
78613;BME280;67933;51.060;3.638;2023-11-19T07:03:47;101094.38;;;9.91;100.00
78613;BME280;67933;51.060;3.638;2023-11-19T07:06:13;101090.78;;;9.92;100.00
78613;BME280;67933;51.060;3.638;2023-11-19T07:08:41;101094.94;;;9.97;100.00
78613;BME280;67933;51.060;3.638;2023-11-19T07:11:06;101099.84;;;10.05;100.00
78613;BME280;67933;51.060;3.638;2023-11-19T07:13:31;101096.00;;;9.93;100.00
78613;BME280;67933;51.060;3.638;2023-11-19T07:15:57;101093.44;;;9.92;100.00
78613;BME280;67933;51.060;3.638;2023-11-19T07:18:23;101104.50;;;10.00;100.00
78613;BME280;67933;51.060;3.638;2023-11-19T07:20:49;101099.84;;;10.05;100.00
78613;BME280;67933;51.060;3.638;2023-11-19T07:23:14;101107.94;;;10.02;100.00
78613;BME280;67933;51.060;3.638;2023-11-19T07:25:42;101114.63;;;10.09;100.00
78613;BME280;67933;51.060;3.638;2023-11-19T07:28:10;101103.97;;;10.28;100.00
78613;BME280;67933;51.060;3.638;2023-11-19T07:30:35;101102.47;;;10.39;100.00
78613;BME280;67933;51.060;3.638;2023-11-19T07:33:01;101106.91;;;10.39;100.00
78613;BME280;67933;51.060;3.638;2023-11-19T07:35:29;101105.31;;;10.36;100.00
78613;BME280;67933;51.060;3.638;2023-11-19T07:37:56;101106.56;;;10.29;100.00
78613;BME280;67933;51.060;3.638;2023-11-19T07:40:21;101104.50;;;10.34;100.00
78613;BME280;67933;51.060;3.638;2023-11-19T07:42:47;101099.34;;;10.31;100.00
78613;BME280;67933;51.060;3.638;2023-11-19T07:45:12;101123.16;;;10.33;100.00
78613;BME280;67933;51.060;3.638;2023-11-19T07:47:38;101120.81;;;10.44;100.00
78613;BME280;67933;51.060;3.638;2023-11-19T07:50:04;101112.25;;;10.55;100.00
78613;BME280;67933;51.060;3.638;2023-11-19T07:52:30;101105.09;;;10.57;100.00
78613;BME280;67933;51.060;3.638;2023-11-19T07:54:56;101110.25;;;10.60;100.00
78613;BME280;67933;51.060;3.638;2023-11-19T07:57:21;101114.91;;;10.55;100.00
78613;BME280;67933;51.060;3.638;2023-11-19T07:59:49;101109.19;;;10.62;100.00
78613;BME280;67933;51.060;3.638;2023-11-19T08:02:14;101113.53;;;10.80;100.00
78613;BME280;67933;51.060;3.638;2023-11-19T08:04:39;101112.84;;;11.08;100.00
78613;BME280;67933;51.060;3.638;2023-11-19T08:07:10;101109.78;;;11.32;100.00
78613;BME280;67933;51.060;3.638;2023-11-19T08:09:35;101118.00;;;11.43;100.00
78613;BME280;67933;51.060;3.638;2023-11-19T08:12:01;101130.34;;;11.28;100.00
78613;BME280;67933;51.060;3.638;2023-11-19T08:14:26;101127.25;;;11.51;100.00
78613;BME280;67933;51.060;3.638;2023-11-19T08:16:51;101122.44;;;11.58;100.00
78613;BME280;67933;51.060;3.638;2023-11-19T08:19:18;101122.31;;;11.45;100.00
78613;BME280;67933;51.060;3.638;2023-11-19T08:21:43;101122.97;;;11.49;100.00
78613;BME280;67933;51.060;3.638;2023-11-19T08:24:09;101117.22;;;11.56;100.00
78613;BME280;67933;51.060;3.638;2023-11-19T08:26:34;101112.31;;;11.65;100.00
78613;BME280;67933;51.060;3.638;2023-11-19T08:28:59;101107.28;;;11.60;100.00
78613;BME280;67933;51.060;3.638;2023-11-19T08:31:25;101121.59;;;11.57;100.00
78613;BME280;67933;51.060;3.638;2023-11-19T08:33:50;101118.22;;;11.70;100.00
78613;BME280;67933;51.060;3.638;2023-11-19T08:36:16;101117.59;;;11.96;100.00
78613;BME280;67933;51.060;3.638;2023-11-19T08:38:42;101124.63;;;12.41;100.00
78613;BME280;67933;51.060;3.638;2023-11-19T08:41:07;101116.75;;;12.82;100.00
78613;BME280;67933;51.060;3.638;2023-11-19T08:43:33;101121.78;;;13.15;100.00
78613;BME280;67933;51.060;3.638;2023-11-19T08:45:58;101117.50;;;13.54;100.00
78613;BME280;67933;51.060;3.638;2023-11-19T08:48:23;101105.84;;;13.81;100.00
78613;BME280;67933;51.060;3.638;2023-11-19T08:50:49;101105.69;;;14.10;100.00
78613;BME280;67933;51.060;3.638;2023-11-19T08:53:15;101106.16;;;14.16;100.00
78613;BME280;67933;51.060;3.638;2023-11-19T08:55:40;101116.75;;;13.52;100.00
78613;BME280;67933;51.060;3.638;2023-11-19T08:58:06;101116.63;;;13.12;100.00
78613;BME280;67933;51.060;3.638;2023-11-19T09:00:32;101118.34;;;12.70;100.00
78613;BME280;67933;51.060;3.638;2023-11-19T09:02:57;101113.97;;;12.41;100.00
78613;BME280;67933;51.060;3.638;2023-11-19T09:05:23;101113.13;;;12.41;100.00
78613;BME280;67933;51.060;3.638;2023-11-19T09:07:48;101112.47;;;12.65;100.00
78613;BME280;67933;51.060;3.638;2023-11-19T09:10:15;101118.50;;;12.25;100.00
78613;BME280;67933;51.060;3.638;2023-11-19T09:12:41;101114.31;;;12.07;100.00
78613;BME280;67933;51.060;3.638;2023-11-19T09:15:06;101107.44;;;12.03;100.00
78613;BME280;67933;51.060;3.638;2023-11-19T09:17:32;101120.69;;;11.88;100.00
78613;BME280;67933;51.060;3.638;2023-11-19T09:19:57;101118.13;;;11.87;100.00
78613;BME280;67933;51.060;3.638;2023-11-19T09:22:23;101114.88;;;11.82;100.00
78613;BME280;67933;51.060;3.638;2023-11-19T09:24:48;101115.56;;;11.70;100.00
78613;BME280;67933;51.060;3.638;2023-11-19T09:27:15;101122.38;;;11.60;100.00
78613;BME280;67933;51.060;3.638;2023-11-19T09:29:41;101120.72;;;11.57;100.00
78613;BME280;67933;51.060;3.638;2023-11-19T09:32:08;101119.78;;;12.04;100.00
78613;BME280;67933;51.060;3.638;2023-11-19T09:34:33;101109.28;;;12.16;100.00
78613;BME280;67933;51.060;3.638;2023-11-19T09:36:59;101110.19;;;12.88;100.00
78613;BME280;67933;51.060;3.638;2023-11-19T09:39:24;101103.28;;;13.80;100.00
78613;BME280;67933;51.060;3.638;2023-11-19T09:41:51;101101.81;;;14.79;100.00
78613;BME280;67933;51.060;3.638;2023-11-19T09:44:16;101091.63;;;15.33;100.00
78613;BME280;67933;51.060;3.638;2023-11-19T09:46:44;101102.34;;;14.58;100.00
78613;BME280;67933;51.060;3.638;2023-11-19T09:49:10;101106.84;;;13.54;100.00
78613;BME280;67933;51.060;3.638;2023-11-19T09:51:37;101110.38;;;12.70;100.00
78613;BME280;67933;51.060;3.638;2023-11-19T09:54:02;101103.72;;;12.35;100.00
78613;BME280;67933;51.060;3.638;2023-11-19T09:56:29;101096.75;;;12.18;100.00
78613;BME280;67933;51.060;3.638;2023-11-19T09:58:55;101105.59;;;12.19;100.00
78613;BME280;67933;51.060;3.638;2023-11-19T10:01:20;101109.06;;;12.05;100.00
78613;BME280;67933;51.060;3.638;2023-11-19T10:03:47;101120.34;;;11.94;100.00
78613;BME280;67933;51.060;3.638;2023-11-19T10:06:14;101123.00;;;11.94;100.00
78613;BME280;67933;51.060;3.638;2023-11-19T10:08:41;101102.56;;;11.95;100.00
78613;BME280;67933;51.060;3.638;2023-11-19T10:11:07;101120.25;;;11.96;100.00
78613;BME280;67933;51.060;3.638;2023-11-19T10:13:36;101129.75;;;12.00;100.00
78613;BME280;67933;51.060;3.638;2023-11-19T10:16:10;101124.50;;;12.14;100.00
78613;BME280;67933;51.060;3.638;2023-11-19T10:18:37;101114.59;;;12.16;100.00
78613;BME280;67933;51.060;3.638;2023-11-19T10:21:06;101116.00;;;12.52;100.00
78613;BME280;67933;51.060;3.638;2023-11-19T10:23:51;101115.28;;;12.34;100.00
78613;BME280;67933;51.060;3.638;2023-11-19T10:26:17;101111.13;;;12.30;100.00
78613;BME280;67933;51.060;3.638;2023-11-19T10:28:43;101108.44;;;13.83;100.00
78613;BME280;67933;51.060;3.638;2023-11-19T10:31:17;101094.56;;;14.55;100.00
78613;BME280;67933;51.060;3.638;2023-11-19T10:33:46;101106.78;;;14.96;100.00
78613;BME280;67933;51.060;3.638;2023-11-19T10:36:12;101094.09;;;15.60;100.00
78613;BME280;67933;51.060;3.638;2023-11-19T10:38:39;101091.91;;;15.65;100.00
78613;BME280;67933;51.060;3.638;2023-11-19T10:41:05;101099.28;;;16.20;100.00
78613;BME280;67933;51.060;3.638;2023-11-19T10:43:31;101094.94;;;15.95;100.00
78613;BME280;67933;51.060;3.638;2023-11-19T10:46:09;101093.31;;;16.63;100.00
78613;BME280;67933;51.060;3.638;2023-11-19T10:48:35;101080.66;;;16.18;100.00
78613;BME280;67933;51.060;3.638;2023-11-19T10:51:01;101086.28;;;16.27;100.00
78613;BME280;67933;51.060;3.638;2023-11-19T10:53:29;101068.66;;;16.24;100.00
78613;BME280;67933;51.060;3.638;2023-11-19T10:55:57;101065.78;;;16.61;100.00
78613;BME280;67933;51.060;3.638;2023-11-19T10:58:24;101054.28;;;16.36;100.00
78613;BME280;67933;51.060;3.638;2023-11-19T11:01:02;101045.53;;;17.01;100.00
78613;BME280;67933;51.060;3.638;2023-11-19T11:03:32;101049.22;;;16.67;100.00
78613;BME280;67933;51.060;3.638;2023-11-19T11:06:03;101045.53;;;17.01;100.00
78613;BME280;67933;51.060;3.638;2023-11-19T11:08:30;101044.22;;;16.73;100.00
78613;BME280;67933;51.060;3.638;2023-11-19T11:10:56;101033.97;;;16.89;100.00
78613;BME280;67933;51.060;3.638;2023-11-19T11:13:23;101038.56;;;16.09;100.00
78613;BME280;67933;51.060;3.638;2023-11-19T11:15:50;101037.69;;;15.39;100.00
78613;BME280;67933;51.060;3.638;2023-11-19T11:18:16;101045.06;;;14.75;100.00
78613;BME280;67933;51.060;3.638;2023-11-19T11:20:44;101045.22;;;14.23;100.00
78613;BME280;67933;51.060;3.638;2023-11-19T11:28:56;101038.34;;;12.59;100.00
78613;BME280;67933;51.060;3.638;2023-11-19T11:31:44;101034.38;;;12.38;100.00
78613;BME280;67933;51.060;3.638;2023-11-19T11:39:39;101034.63;;;12.05;100.00
78613;BME280;67933;51.060;3.638;2023-11-19T11:45:11;101049.59;;;11.92;100.00
78613;BME280;67933;51.060;3.638;2023-11-19T11:50:13;101093.34;;;11.86;100.00
78613;BME280;67933;51.060;3.638;2023-11-19T11:53:18;101076.16;;;12.36;100.00
78613;BME280;67933;51.060;3.638;2023-11-19T11:58:31;101062.03;;;15.23;100.00
78613;BME280;67933;51.060;3.638;2023-11-19T12:00:58;101049.13;;;16.11;100.00
78613;BME280;67933;51.060;3.638;2023-11-19T12:03:27;101056.97;;;16.25;100.00
78613;BME280;67933;51.060;3.638;2023-11-19T12:05:52;101041.97;;;17.12;100.00
78613;BME280;67933;51.060;3.638;2023-11-19T12:08:26;101042.00;;;16.23;100.00
78613;BME280;67933;51.060;3.638;2023-11-19T12:10:53;101036.47;;;15.43;100.00
78613;BME280;67933;51.060;3.638;2023-11-19T12:13:20;101035.75;;;14.93;100.00
78613;BME280;67933;51.060;3.638;2023-11-19T12:18:31;101030.75;;;13.75;100.00
78613;BME280;67933;51.060;3.638;2023-11-19T12:20:58;101025.88;;;14.57;100.00
78613;BME280;67933;51.060;3.638;2023-11-19T12:23:29;101026.94;;;13.92;100.00
78613;BME280;67933;51.060;3.638;2023-11-19T12:25:55;101024.16;;;13.41;100.00
78613;BME280;67933;51.060;3.638;2023-11-19T12:28:20;101027.31;;;13.06;100.00
78613;BME280;67933;51.060;3.638;2023-11-19T12:30:46;101030.03;;;12.92;100.00
78613;BME280;67933;51.060;3.638;2023-11-19T12:33:12;101025.50;;;12.66;100.00
78613;BME280;67933;51.060;3.638;2023-11-19T12:35:42;101030.94;;;12.36;100.00
78613;BME280;67933;51.060;3.638;2023-11-19T12:38:09;101028.44;;;12.19;100.00
78613;BME280;67933;51.060;3.638;2023-11-19T12:40:43;101038.22;;;12.04;100.00
78613;BME280;67933;51.060;3.638;2023-11-19T12:43:08;101057.28;;;11.97;100.00
78613;BME280;67933;51.060;3.638;2023-11-19T12:45:37;101064.59;;;11.93;100.00
78613;BME280;67933;51.060;3.638;2023-11-19T12:48:08;101042.19;;;12.82;100.00
78613;BME280;67933;51.060;3.638;2023-11-19T12:53:26;101026.00;;;14.92;100.00
78613;BME280;67933;51.060;3.638;2023-11-19T12:55:54;101019.88;;;15.74;100.00
78613;BME280;67933;51.060;3.638;2023-11-19T12:58:36;101013.66;;;15.50;100.00
78613;BME280;67933;51.060;3.638;2023-11-19T13:01:04;101010.22;;;15.37;100.00
78613;BME280;67933;51.060;3.638;2023-11-19T13:03:33;101010.13;;;15.62;100.00
78613;BME280;67933;51.060;3.638;2023-11-19T13:06:17;101015.38;;;15.27;100.00